sensor_id;sensor_type;location;lat;lon;timestamp;pressure;altitude;pressure_sealevel;temperature;humidity
62072;BME280;48031;48.542;13.232;2023-07-31T00:03:10;97409.13;;;22.91;52.40
62072;BME280;48031;48.542;13.232;2023-07-31T00:07:13;97410.28;;;22.90;52.29
62072;BME280;48031;48.542;13.232;2023-07-31T00:11:15;97406.78;;;23.10;51.77
62072;BME280;48031;48.542;13.232;2023-07-31T00:15:17;97399.94;;;23.08;51.24
62072;BME280;48031;48.542;13.232;2023-07-31T00:19:19;61634.44;;;-142.07;100.00
62072;BME280;48031;48.542;13.232;2023-07-31T00:23:22;97393.97;;;23.27;50.58
62072;BME280;48031;48.542;13.232;2023-07-31T00:27:24;97414.38;;;23.22;51.39
62072;BME280;48031;48.542;13.232;2023-07-31T00:31:26;97405.13;;;23.47;50.83
62072;BME280;48031;48.542;13.232;2023-07-31T00:35:29;97405.06;;;23.27;51.32
62072;BME280;48031;48.542;13.232;2023-07-31T00:39:34;97403.41;;;22.96;51.03
62072;BME280;48031;48.542;13.232;2023-07-31T00:43:36;97398.66;;;22.97;50.99
62072;BME280;48031;48.542;13.232;2023-07-31T00:47:38;97393.28;;;23.30;50.02
62072;BME280;48031;48.542;13.232;2023-07-31T00:51:40;97403.44;;;22.88;51.57
62072;BME280;48031;48.542;13.232;2023-07-31T00:55:44;97404.47;;;22.66;52.37
62072;BME280;48031;48.542;13.232;2023-07-31T00:59:48;97397.88;;;22.32;53.36
62072;BME280;48031;48.542;13.232;2023-07-31T01:03:51;97400.91;;;22.57;52.27
62072;BME280;48031;48.542;13.232;2023-07-31T01:08:22;97391.59;;;22.70;52.46
62072;BME280;48031;48.542;13.232;2023-07-31T01:12:27;97382.94;;;22.80;51.74
62072;BME280;48031;48.542;13.232;2023-07-31T01:16:32;97394.13;;;22.20;53.01
62072;BME280;48031;48.542;13.232;2023-07-31T01:20:36;97391.53;;;22.32;52.97
62072;BME280;48031;48.542;13.232;2023-07-31T01:33:23;97377.41;;;21.99;53.00
62072;BME280;48031;48.542;13.232;2023-07-31T01:37:29;97379.00;;;21.91;53.18
62072;BME280;48031;48.542;13.232;2023-07-31T01:41:34;97373.97;;;21.59;53.38
62072;BME280;48031;48.542;13.232;2023-07-31T01:45:37;97369.59;;;21.49;54.17
62072;BME280;48031;48.542;13.232;2023-07-31T01:49:39;97369.25;;;21.42;54.13
62072;BME280;48031;48.542;13.232;2023-07-31T01:53:41;97370.56;;;21.45;54.13
62072;BME280;48031;48.542;13.232;2023-07-31T01:57:43;97360.00;;;21.64;52.87
62072;BME280;48031;48.542;13.232;2023-07-31T02:01:45;97363.25;;;21.49;53.00
62072;BME280;48031;48.542;13.232;2023-07-31T02:05:48;97364.56;;;21.60;52.42
62072;BME280;48031;48.542;13.232;2023-07-31T02:09:51;97363.41;;;21.52;52.93
62072;BME280;48031;48.542;13.232;2023-07-31T02:13:54;97359.81;;;21.43;53.22
62072;BME280;48031;48.542;13.232;2023-07-31T02:17:56;97356.59;;;21.67;52.73
62072;BME280;48031;48.542;13.232;2023-07-31T02:21:59;97356.44;;;21.55;54.07
62072;BME280;48031;48.542;13.232;2023-07-31T02:26:02;97356.91;;;21.83;52.70
62072;BME280;48031;48.542;13.232;2023-07-31T02:30:04;97354.47;;;21.64;52.31
62072;BME280;48031;48.542;13.232;2023-07-31T02:34:07;97348.31;;;21.67;52.93
62072;BME280;48031;48.542;13.232;2023-07-31T02:38:08;97343.44;;;21.73;51.88
62072;BME280;48031;48.542;13.232;2023-07-31T02:42:10;97351.56;;;21.78;52.68
62072;BME280;48031;48.542;13.232;2023-07-31T02:46:13;97353.84;;;21.67;53.16
62072;BME280;48031;48.542;13.232;2023-07-31T02:50:15;97351.06;;;21.76;52.64
62072;BME280;48031;48.542;13.232;2023-07-31T02:54:18;97360.00;;;21.81;52.54
62072;BME280;48031;48.542;13.232;2023-07-31T02:58:21;97355.75;;;21.58;52.59
62072;BME280;48031;48.542;13.232;2023-07-31T03:02:25;97359.50;;;21.71;51.41
62072;BME280;48031;48.542;13.232;2023-07-31T03:06:27;97347.81;;;21.56;52.44
62072;BME280;48031;48.542;13.232;2023-07-31T03:10:29;97352.84;;;21.80;52.86
62072;BME280;48031;48.542;13.232;2023-07-31T03:14:32;97349.09;;;21.42;53.01
62072;BME280;48031;48.542;13.232;2023-07-31T03:18:35;97349.78;;;21.56;52.78
62072;BME280;48031;48.542;13.232;2023-07-31T03:22:38;97343.16;;;21.09;52.47
62072;BME280;48031;48.542;13.232;2023-07-31T03:26:41;97347.81;;;21.39;52.15
62072;BME280;48031;48.542;13.232;2023-07-31T03:30:45;97354.00;;;21.45;52.74
62072;BME280;48031;48.542;13.232;2023-07-31T03:34:47;97347.47;;;21.75;52.82
62072;BME280;48031;48.542;13.232;2023-07-31T03:38:51;97344.91;;;21.79;52.04
62072;BME280;48031;48.542;13.232;2023-07-31T03:42:53;97332.69;;;21.63;53.50
62072;BME280;48031;48.542;13.232;2023-07-31T03:46:55;97340.19;;;21.45;53.33
62072;BME280;48031;48.542;13.232;2023-07-31T03:50:58;97340.16;;;21.36;53.87
62072;BME280;48031;48.542;13.232;2023-07-31T03:55:02;97340.66;;;21.64;51.92
62072;BME280;48031;48.542;13.232;2023-07-31T03:59:05;97353.47;;;21.43;52.71
62072;BME280;48031;48.542;13.232;2023-07-31T04:03:07;97346.03;;;21.78;52.39
62072;BME280;48031;48.542;13.232;2023-07-31T04:07:09;97354.59;;;21.25;53.38
62072;BME280;48031;48.542;13.232;2023-07-31T04:11:12;97344.72;;;21.49;52.58
62072;BME280;48031;48.542;13.232;2023-07-31T04:15:14;97344.03;;;21.35;53.23
62072;BME280;48031;48.542;13.232;2023-07-31T04:19:17;97347.97;;;21.34;53.40
62072;BME280;48031;48.542;13.232;2023-07-31T04:23:21;97356.06;;;21.31;52.79
62072;BME280;48031;48.542;13.232;2023-07-31T04:27:25;97364.84;;;21.41;53.27
62072;BME280;48031;48.542;13.232;2023-07-31T04:31:27;97359.78;;;21.26;53.92
62072;BME280;48031;48.542;13.232;2023-07-31T04:35:29;97354.31;;;21.78;52.06
62072;BME280;48031;48.542;13.232;2023-07-31T04:39:31;97350.06;;;21.63;52.75
62072;BME280;48031;48.542;13.232;2023-07-31T04:43:33;97347.16;;;21.42;54.13
62072;BME280;48031;48.542;13.232;2023-07-31T04:47:36;97352.84;;;21.54;54.36
62072;BME280;48031;48.542;13.232;2023-07-31T04:51:39;97338.53;;;21.70;53.42
62072;BME280;48031;48.542;13.232;2023-07-31T04:55:41;97348.66;;;22.00;52.82
62072;BME280;48031;48.542;13.232;2023-07-31T04:59:43;97343.06;;;21.91;53.09
62072;BME280;48031;48.542;13.232;2023-07-31T05:03:45;97351.03;;;21.41;53.44
62072;BME280;48031;48.542;13.232;2023-07-31T05:07:47;97345.19;;;21.34;53.64
62072;BME280;48031;48.542;13.232;2023-07-31T05:11:50;97349.09;;;21.33;55.26
62072;BME280;48031;48.542;13.232;2023-07-31T05:15:52;97348.44;;;22.14;52.97
62072;BME280;48031;48.542;13.232;2023-07-31T05:19:56;97344.00;;;22.30;52.79
62072;BME280;48031;48.542;13.232;2023-07-31T05:23:59;97348.47;;;21.88;53.87
62072;BME280;48031;48.542;13.232;2023-07-31T05:28:01;97341.13;;;22.18;52.58
62072;BME280;48031;48.542;13.232;2023-07-31T05:32:04;97332.72;;;22.61;51.35
62072;BME280;48031;48.542;13.232;2023-07-31T05:36:06;97329.94;;;22.61;51.59
62072;BME280;48031;48.542;13.232;2023-07-31T05:40:09;97346.31;;;22.19;53.95
62072;BME280;48031;48.542;13.232;2023-07-31T05:44:11;97341.47;;;22.16;54.14
62072;BME280;48031;48.542;13.232;2023-07-31T05:48:14;97338.78;;;22.92;50.64
62072;BME280;48031;48.542;13.232;2023-07-31T05:52:16;97331.69;;;22.74;49.33
62072;BME280;48031;48.542;13.232;2023-07-31T05:56:18;97335.00;;;23.26;49.60
62072;BME280;48031;48.542;13.232;2023-07-31T06:00:21;97333.53;;;22.99;50.50
62072;BME280;48031;48.542;13.232;2023-07-31T06:04:23;97332.47;;;22.83;53.43
62072;BME280;48031;48.542;13.232;2023-07-31T06:08:28;97334.53;;;22.95;49.64
62072;BME280;48031;48.542;13.232;2023-07-31T06:12:31;97329.56;;;23.59;50.57
62072;BME280;48031;48.542;13.232;2023-07-31T06:16:33;97317.34;;;23.60;50.50
62072;BME280;48031;48.542;13.232;2023-07-31T06:20:36;97315.44;;;23.52;51.14
62072;BME280;48031;48.542;13.232;2023-07-31T06:24:38;97327.16;;;23.78;50.24
62072;BME280;48031;48.542;13.232;2023-07-31T06:28:41;97319.41;;;23.63;51.42
62072;BME280;48031;48.542;13.232;2023-07-31T06:32:44;97322.03;;;24.01;49.46
62072;BME280;48031;48.542;13.232;2023-07-31T06:36:46;97320.97;;;24.71;48.99
62072;BME280;48031;48.542;13.232;2023-07-31T06:40:48;97326.34;;;24.43;49.31
62072;BME280;48031;48.542;13.232;2023-07-31T06:44:50;97320.25;;;24.50;47.96
62072;BME280;48031;48.542;13.232;2023-07-31T06:48:52;97333.69;;;24.72;48.29
62072;BME280;48031;48.542;13.232;2023-07-31T06:52:54;97326.38;;;25.65;47.17
62072;BME280;48031;48.542;13.232;2023-07-31T06:56:56;97317.91;;;26.29;46.22
62072;BME280;48031;48.542;13.232;2023-07-31T07:00:59;97315.25;;;26.64;44.40
62072;BME280;48031;48.542;13.232;2023-07-31T07:05:01;97316.38;;;27.42;43.88
62072;BME280;48031;48.542;13.232;2023-07-31T07:09:03;97310.25;;;28.09;41.72
62072;BME280;48031;48.542;13.232;2023-07-31T07:13:06;97305.75;;;26.97;43.74
62072;BME280;48031;48.542;13.232;2023-07-31T07:17:08;97311.00;;;27.87;43.55
62072;BME280;48031;48.542;13.232;2023-07-31T07:21:10;97311.53;;;27.74;42.25
62072;BME280;48031;48.542;13.232;2023-07-31T07:25:17;97308.16;;;27.49;42.63
62072;BME280;48031;48.542;13.232;2023-07-31T07:29:18;97305.22;;;26.91;44.83
62072;BME280;48031;48.542;13.232;2023-07-31T07:33:21;97299.50;;;27.89;41.88
62072;BME280;48031;48.542;13.232;2023-07-31T07:37:23;97293.47;;;27.67;41.30
62072;BME280;48031;48.542;13.232;2023-07-31T07:41:25;97295.38;;;27.28;39.90
62072;BME280;48031;48.542;13.232;2023-07-31T07:45:27;97296.13;;;26.78;40.72
62072;BME280;48031;48.542;13.232;2023-07-31T07:49:30;97295.84;;;26.99;42.39
62072;BME280;48031;48.542;13.232;2023-07-31T07:53:32;97285.34;;;26.61;39.84
62072;BME280;48031;48.542;13.232;2023-07-31T07:57:34;97279.03;;;27.11;38.73
62072;BME280;48031;48.542;13.232;2023-07-31T08:01:36;97272.84;;;27.72;38.36
62072;BME280;48031;48.542;13.232;2023-07-31T08:05:38;97277.34;;;27.42;39.04
62072;BME280;48031;48.542;13.232;2023-07-31T08:09:40;97279.13;;;26.36;41.19
62072;BME280;48031;48.542;13.232;2023-07-31T08:13:43;97274.81;;;28.29;38.50
62072;BME280;48031;48.542;13.232;2023-07-31T08:17:45;97274.72;;;28.26;36.25
62072;BME280;48031;48.542;13.232;2023-07-31T08:21:48;97272.97;;;27.60;38.58
62072;BME280;48031;48.542;13.232;2023-07-31T08:25:50;97279.00;;;27.62;37.96
62072;BME280;48031;48.542;13.232;2023-07-31T08:29:52;97280.47;;;27.05;39.48
62072;BME280;48031;48.542;13.232;2023-07-31T08:33:55;97269.34;;;26.42;38.92
62072;BME280;48031;48.542;13.232;2023-07-31T08:37:57;97267.38;;;26.74;38.71
62072;BME280;48031;48.542;13.232;2023-07-31T08:42:00;97258.16;;;27.75;36.81
62072;BME280;48031;48.542;13.232;2023-07-31T08:46:03;97281.31;;;26.15;39.25
62072;BME280;48031;48.542;13.232;2023-07-31T08:50:06;97272.22;;;26.62;38.88
62072;BME280;48031;48.542;13.232;2023-07-31T08:54:08;97269.47;;;26.18;39.52
62072;BME280;48031;48.542;13.232;2023-07-31T08:58:12;97268.09;;;27.03;38.75
62072;BME280;48031;48.542;13.232;2023-07-31T09:02:15;97267.28;;;27.02;38.08
62072;BME280;48031;48.542;13.232;2023-07-31T09:06:20;97267.28;;;27.02;38.08
62072;BME280;48031;48.542;13.232;2023-07-31T09:10:23;61634.44;;;-142.07;100.00
62072;BME280;48031;48.542;13.232;2023-07-31T09:14:26;61634.44;;;-142.07;100.00
62072;BME280;48031;48.542;13.232;2023-07-31T09:18:28;97267.28;;;27.02;38.08
62072;BME280;48031;48.542;13.232;2023-07-31T09:22:34;97248.84;;;30.13;34.20
62072;BME280;48031;48.542;13.232;2023-07-31T09:26:37;97245.72;;;29.02;35.21
62072;BME280;48031;48.542;13.232;2023-07-31T09:30:51;97247.16;;;29.75;34.71
62072;BME280;48031;48.542;13.232;2023-07-31T09:34:53;97247.84;;;27.98;36.55
62072;BME280;48031;48.542;13.232;2023-07-31T09:38:55;97242.34;;;28.67;36.22
62072;BME280;48031;48.542;13.232;2023-07-31T09:43:01;97231.75;;;30.25;34.04
62072;BME280;48031;48.542;13.232;2023-07-31T09:47:04;61634.44;;;-142.07;100.00
62072;BME280;48031;48.542;13.232;2023-07-31T09:51:06;97224.00;;;30.96;32.65
62072;BME280;48031;48.542;13.232;2023-07-31T09:55:09;97215.41;;;29.94;34.69
62072;BME280;48031;48.542;13.232;2023-07-31T09:59:19;97213.19;;;30.10;33.97
62072;BME280;48031;48.542;13.232;2023-07-31T10:03:25;61634.44;;;-142.07;100.00
62072;BME280;48031;48.542;13.232;2023-07-31T10:07:30;61634.44;;;-142.07;100.00
62072;BME280;48031;48.542;13.232;2023-07-31T10:11:38;61634.44;;;-142.07;100.00
62072;BME280;48031;48.542;13.232;2023-07-31T10:15:43;61634.44;;;-142.07;100.00
62072;BME280;48031;48.542;13.232;2023-07-31T10:19:46;61634.44;;;-142.07;100.00
62072;BME280;48031;48.542;13.232;2023-07-31T10:23:49;61634.44;;;-142.07;100.00
62072;BME280;48031;48.542;13.232;2023-07-31T10:27:53;97162.91;;;30.68;32.68
62072;BME280;48031;48.542;13.232;2023-07-31T10:31:57;97156.03;;;31.10;33.08
62072;BME280;48031;48.542;13.232;2023-07-31T10:36:17;97156.03;;;31.10;33.08
62072;BME280;48031;48.542;13.232;2023-07-31T10:40:28;97156.03;;;31.10;33.08
62072;BME280;48031;48.542;13.232;2023-07-31T10:44:31;97154.81;;;29.12;35.79
62072;BME280;48031;48.542;13.232;2023-07-31T10:48:33;97144.38;;;29.35;36.08
62072;BME280;48031;48.542;13.232;2023-07-31T10:52:36;97150.16;;;29.23;35.49
62072;BME280;48031;48.542;13.232;2023-07-31T10:56:38;97131.50;;;30.45;34.78
62072;BME280;48031;48.542;13.232;2023-07-31T11:00:44;97116.94;;;33.36;29.43
62072;BME280;48031;48.542;13.232;2023-07-31T11:05:05;97127.63;;;35.55;26.37
62072;BME280;48031;48.542;13.232;2023-07-31T11:09:13;97125.81;;;33.14;28.29
62072;BME280;48031;48.542;13.232;2023-07-31T11:13:16;97113.69;;;38.65;21.97
62072;BME280;48031;48.542;13.232;2023-07-31T11:17:18;97113.41;;;37.92;23.24
62072;BME280;48031;48.542;13.232;2023-07-31T11:21:21;97120.63;;;41.06;19.46
62072;BME280;48031;48.542;13.232;2023-07-31T11:25:24;97127.41;;;37.43;22.77
62072;BME280;48031;48.542;13.232;2023-07-31T11:29:27;97118.13;;;36.99;23.85
62072;BME280;48031;48.542;13.232;2023-07-31T11:33:29;97097.84;;;40.34;20.17
62072;BME280;48031;48.542;13.232;2023-07-31T11:37:41;97105.66;;;41.37;18.96
62072;BME280;48031;48.542;13.232;2023-07-31T11:41:44;97105.56;;;36.31;23.71
62072;BME280;48031;48.542;13.232;2023-07-31T11:45:54;97079.41;;;41.20;19.25
62072;BME280;48031;48.542;13.232;2023-07-31T11:49:57;97079.09;;;44.48;14.95
62072;BME280;48031;48.542;13.232;2023-07-31T11:54:01;97073.50;;;41.80;17.86
62072;BME280;48031;48.542;13.232;2023-07-31T11:58:04;97062.72;;;46.37;15.25
62072;BME280;48031;48.542;13.232;2023-07-31T12:02:06;97062.53;;;40.91;18.46
62072;BME280;48031;48.542;13.232;2023-07-31T12:06:08;97066.44;;;44.40;15.41
62072;BME280;48031;48.542;13.232;2023-07-31T12:10:10;97058.63;;;45.79;14.25
62072;BME280;48031;48.542;13.232;2023-07-31T12:14:24;97040.31;;;44.94;15.73
62072;BME280;48031;48.542;13.232;2023-07-31T12:18:29;97027.72;;;46.53;14.20
62072;BME280;48031;48.542;13.232;2023-07-31T12:22:31;61634.44;;;-142.07;100.00
62072;BME280;48031;48.542;13.232;2023-07-31T12:26:34;61634.44;;;-142.07;100.00
62072;BME280;48031;48.542;13.232;2023-07-31T12:30:37;61634.44;;;-142.07;100.00
62072;BME280;48031;48.542;13.232;2023-07-31T12:34:42;61634.44;;;-142.07;100.00
62072;BME280;48031;48.542;13.232;2023-07-31T12:38:45;61634.44;;;-142.07;100.00
62072;BME280;48031;48.542;13.232;2023-07-31T12:42:48;61634.44;;;-142.07;100.00
62072;BME280;48031;48.542;13.232;2023-07-31T12:46:50;61634.44;;;-142.07;100.00
62072;BME280;48031;48.542;13.232;2023-07-31T12:50:52;61634.44;;;-142.07;100.00
62072;BME280;48031;48.542;13.232;2023-07-31T12:54:53;61634.44;;;-142.07;100.00
62072;BME280;48031;48.542;13.232;2023-07-31T12:58:55;61634.44;;;-142.07;100.00
62072;BME280;48031;48.542;13.232;2023-07-31T13:02:59;61634.44;;;-142.07;100.00
62072;BME280;48031;48.542;13.232;2023-07-31T13:07:02;61634.44;;;-142.07;100.00
62072;BME280;48031;48.542;13.232;2023-07-31T13:11:05;61634.44;;;-142.07;100.00
62072;BME280;48031;48.542;13.232;2023-07-31T13:15:07;61634.44;;;-142.07;100.00
62072;BME280;48031;48.542;13.232;2023-07-31T13:19:09;61634.44;;;-142.07;100.00
62072;BME280;48031;48.542;13.232;2023-07-31T13:23:11;61634.44;;;-142.07;100.00
62072;BME280;48031;48.542;13.232;2023-07-31T13:27:13;61634.44;;;-142.07;100.00
62072;BME280;48031;48.542;13.232;2023-07-31T13:31:16;61634.44;;;-142.07;100.00
62072;BME280;48031;48.542;13.232;2023-07-31T13:35:18;61634.44;;;-142.07;100.00
62072;BME280;48031;48.542;13.232;2023-07-31T13:39:20;61634.44;;;-142.07;100.00
62072;BME280;48031;48.542;13.232;2023-07-31T13:43:23;61634.44;;;-142.07;100.00
62072;BME280;48031;48.542;13.232;2023-07-31T13:47:25;61634.44;;;-142.07;100.00
62072;BME280;48031;48.542;13.232;2023-07-31T13:51:27;61634.44;;;-142.07;100.00
62072;BME280;48031;48.542;13.232;2023-07-31T13:55:30;61634.44;;;-142.07;100.00
62072;BME280;48031;48.542;13.232;2023-07-31T13:59:34;61634.44;;;-142.07;100.00
62072;BME280;48031;48.542;13.232;2023-07-31T14:03:36;61634.44;;;-142.07;100.00
62072;BME280;48031;48.542;13.232;2023-07-31T14:07:39;61634.44;;;-142.07;100.00
62072;BME280;48031;48.542;13.232;2023-07-31T14:11:42;61634.44;;;-142.07;100.00
62072;BME280;48031;48.542;13.232;2023-07-31T14:15:44;61634.44;;;-142.07;100.00
62072;BME280;48031;48.542;13.232;2023-07-31T14:19:46;61634.44;;;-142.07;100.00
62072;BME280;48031;48.542;13.232;2023-07-31T14:23:49;61634.44;;;-142.07;100.00
62072;BME280;48031;48.542;13.232;2023-07-31T14:27:51;61634.44;;;-142.07;100.00
62072;BME280;48031;48.542;13.232;2023-07-31T14:31:53;61634.44;;;-142.07;100.00
62072;BME280;48031;48.542;13.232;2023-07-31T14:35:55;61634.44;;;-142.07;100.00
62072;BME280;48031;48.542;13.232;2023-07-31T14:39:57;61634.44;;;-142.07;100.00
62072;BME280;48031;48.542;13.232;2023-07-31T14:44:00;61634.44;;;-142.07;100.00
62072;BME280;48031;48.542;13.232;2023-07-31T14:48:03;61634.44;;;-142.07;100.00
62072;BME280;48031;48.542;13.232;2023-07-31T14:52:05;61634.44;;;-142.07;100.00
62072;BME280;48031;48.542;13.232;2023-07-31T14:56:08;61634.44;;;-142.07;100.00
62072;BME280;48031;48.542;13.232;2023-07-31T15:00:11;61634.44;;;-142.07;100.00
62072;BME280;48031;48.542;13.232;2023-07-31T15:04:13;61634.44;;;-142.07;100.00
62072;BME280;48031;48.542;13.232;2023-07-31T15:08:15;61634.44;;;-142.07;100.00
62072;BME280;48031;48.542;13.232;2023-07-31T15:12:17;61634.44;;;-142.07;100.00
62072;BME280;48031;48.542;13.232;2023-07-31T15:16:19;61634.44;;;-142.07;100.00
62072;BME280;48031;48.542;13.232;2023-07-31T15:20:22;61634.44;;;-142.07;100.00
62072;BME280;48031;48.542;13.232;2023-07-31T15:24:24;61634.44;;;-142.07;100.00
62072;BME280;48031;48.542;13.232;2023-07-31T15:28:26;61634.44;;;-142.07;100.00
62072;BME280;48031;48.542;13.232;2023-07-31T15:32:28;61634.44;;;-142.07;100.00
62072;BME280;48031;48.542;13.232;2023-07-31T15:36:31;61634.44;;;-142.07;100.00
62072;BME280;48031;48.542;13.232;2023-07-31T15:40:33;61634.44;;;-142.07;100.00
62072;BME280;48031;48.542;13.232;2023-07-31T15:44:36;61634.44;;;-142.07;100.00
62072;BME280;48031;48.542;13.232;2023-07-31T15:48:38;61634.44;;;-142.07;100.00
62072;BME280;48031;48.542;13.232;2023-07-31T15:52:40;61634.44;;;-142.07;100.00
62072;BME280;48031;48.542;13.232;2023-07-31T15:56:42;61634.44;;;-142.07;100.00
62072;BME280;48031;48.542;13.232;2023-07-31T16:00:44;61634.44;;;-142.07;100.00
62072;BME280;48031;48.542;13.232;2023-07-31T16:04:47;61634.44;;;-142.07;100.00
62072;BME280;48031;48.542;13.232;2023-07-31T16:08:49;61634.44;;;-142.07;100.00
62072;BME280;48031;48.542;13.232;2023-07-31T16:12:51;61634.44;;;-142.07;100.00
62072;BME280;48031;48.542;13.232;2023-07-31T16:16:53;61634.44;;;-142.07;100.00
62072;BME280;48031;48.542;13.232;2023-07-31T16:20:55;61634.44;;;-142.07;100.00
62072;BME280;48031;48.542;13.232;2023-07-31T16:24:57;61634.44;;;-142.07;100.00
62072;BME280;48031;48.542;13.232;2023-07-31T16:29:00;61634.44;;;-142.07;100.00
62072;BME280;48031;48.542;13.232;2023-07-31T16:33:01;61634.44;;;-142.07;100.00
62072;BME280;48031;48.542;13.232;2023-07-31T16:37:04;61634.44;;;-142.07;100.00
62072;BME280;48031;48.542;13.232;2023-07-31T16:41:06;61634.44;;;-142.07;100.00
62072;BME280;48031;48.542;13.232;2023-07-31T16:45:09;61634.44;;;-142.07;100.00
62072;BME280;48031;48.542;13.232;2023-07-31T16:49:10;61634.44;;;-142.07;100.00
62072;BME280;48031;48.542;13.232;2023-07-31T16:53:13;61634.44;;;-142.07;100.00
62072;BME280;48031;48.542;13.232;2023-07-31T16:57:15;61634.44;;;-142.07;100.00
62072;BME280;48031;48.542;13.232;2023-07-31T17:01:17;61634.44;;;-142.07;100.00
62072;BME280;48031;48.542;13.232;2023-07-31T17:05:19;61634.44;;;-142.07;100.00
62072;BME280;48031;48.542;13.232;2023-07-31T17:09:21;61634.44;;;-142.07;100.00
62072;BME280;48031;48.542;13.232;2023-07-31T17:13:24;61634.44;;;-142.07;100.00
62072;BME280;48031;48.542;13.232;2023-07-31T17:17:26;61634.44;;;-142.07;100.00
62072;BME280;48031;48.542;13.232;2023-07-31T17:21:30;61634.44;;;-142.07;100.00
62072;BME280;48031;48.542;13.232;2023-07-31T17:25:32;61634.44;;;-142.07;100.00
62072;BME280;48031;48.542;13.232;2023-07-31T17:29:34;61634.44;;;-142.07;100.00
62072;BME280;48031;48.542;13.232;2023-07-31T17:33:36;61634.44;;;-142.07;100.00
62072;BME280;48031;48.542;13.232;2023-07-31T17:37:38;61634.44;;;-142.07;100.00
62072;BME280;48031;48.542;13.232;2023-07-31T17:41:40;61634.44;;;-142.07;100.00
62072;BME280;48031;48.542;13.232;2023-07-31T17:45:42;61634.44;;;-142.07;100.00
62072;BME280;48031;48.542;13.232;2023-07-31T17:49:44;61634.44;;;-142.07;100.00
62072;BME280;48031;48.542;13.232;2023-07-31T17:53:47;61634.44;;;-142.07;100.00
62072;BME280;48031;48.542;13.232;2023-07-31T17:57:49;61634.44;;;-142.07;100.00
62072;BME280;48031;48.542;13.232;2023-07-31T18:01:50;61634.44;;;-142.07;100.00
62072;BME280;48031;48.542;13.232;2023-07-31T18:05:53;61634.44;;;-142.07;100.00
62072;BME280;48031;48.542;13.232;2023-07-31T18:09:55;61634.44;;;-142.07;100.00
62072;BME280;48031;48.542;13.232;2023-07-31T18:13:57;61634.44;;;-142.07;100.00
62072;BME280;48031;48.542;13.232;2023-07-31T18:18:00;61634.44;;;-142.07;100.00
62072;BME280;48031;48.542;13.232;2023-07-31T18:22:02;61634.44;;;-142.07;100.00
62072;BME280;48031;48.542;13.232;2023-07-31T18:26:04;61634.44;;;-142.07;100.00
62072;BME280;48031;48.542;13.232;2023-07-31T18:30:07;61634.44;;;-142.07;100.00
62072;BME280;48031;48.542;13.232;2023-07-31T18:34:11;61634.44;;;-142.07;100.00
62072;BME280;48031;48.542;13.232;2023-07-31T18:38:13;61634.44;;;-142.07;100.00
62072;BME280;48031;48.542;13.232;2023-07-31T18:42:15;61634.44;;;-142.07;100.00
62072;BME280;48031;48.542;13.232;2023-07-31T18:46:18;61634.44;;;-142.07;100.00
62072;BME280;48031;48.542;13.232;2023-07-31T18:50:20;61634.44;;;-142.07;100.00
62072;BME280;48031;48.542;13.232;2023-07-31T18:54:21;61634.44;;;-142.07;100.00
62072;BME280;48031;48.542;13.232;2023-07-31T18:58:23;61634.44;;;-142.07;100.00
62072;BME280;48031;48.542;13.232;2023-07-31T19:02:25;61634.44;;;-142.07;100.00
62072;BME280;48031;48.542;13.232;2023-07-31T19:06:27;61634.44;;;-142.07;100.00
62072;BME280;48031;48.542;13.232;2023-07-31T19:10:34;61634.44;;;-142.07;100.00
62072;BME280;48031;48.542;13.232;2023-07-31T19:14:37;61634.44;;;-142.07;100.00
62072;BME280;48031;48.542;13.232;2023-07-31T19:18:39;61634.44;;;-142.07;100.00
62072;BME280;48031;48.542;13.232;2023-07-31T19:22:41;61634.44;;;-142.07;100.00
62072;BME280;48031;48.542;13.232;2023-07-31T19:26:42;61634.44;;;-142.07;100.00
62072;BME280;48031;48.542;13.232;2023-07-31T19:30:45;61634.44;;;-142.07;100.00
62072;BME280;48031;48.542;13.232;2023-07-31T19:34:47;61634.44;;;-142.07;100.00
62072;BME280;48031;48.542;13.232;2023-07-31T19:38:50;61634.44;;;-142.07;100.00
62072;BME280;48031;48.542;13.232;2023-07-31T19:42:52;61634.44;;;-142.07;100.00
62072;BME280;48031;48.542;13.232;2023-07-31T19:46:56;61634.44;;;-142.07;100.00
62072;BME280;48031;48.542;13.232;2023-07-31T19:50:58;61634.44;;;-142.07;100.00
62072;BME280;48031;48.542;13.232;2023-07-31T19:55:00;61634.44;;;-142.07;100.00
62072;BME280;48031;48.542;13.232;2023-07-31T19:59:01;61634.44;;;-142.07;100.00
62072;BME280;48031;48.542;13.232;2023-07-31T20:03:04;61634.44;;;-142.07;100.00
62072;BME280;48031;48.542;13.232;2023-07-31T20:07:06;61634.44;;;-142.07;100.00
62072;BME280;48031;48.542;13.232;2023-07-31T20:11:08;61634.44;;;-142.07;100.00
62072;BME280;48031;48.542;13.232;2023-07-31T20:15:19;61634.44;;;-142.07;100.00
62072;BME280;48031;48.542;13.232;2023-07-31T20:19:21;61634.44;;;-142.07;100.00
62072;BME280;48031;48.542;13.232;2023-07-31T20:23:24;61634.44;;;-142.07;100.00
62072;BME280;48031;48.542;13.232;2023-07-31T20:27:43;61634.44;;;-142.07;100.00
62072;BME280;48031;48.542;13.232;2023-07-31T20:31:45;61634.44;;;-142.07;100.00
62072;BME280;48031;48.542;13.232;2023-07-31T20:35:48;61634.44;;;-142.07;100.00
62072;BME280;48031;48.542;13.232;2023-07-31T20:39:49;61634.44;;;-142.07;100.00
62072;BME280;48031;48.542;13.232;2023-07-31T20:43:52;61634.44;;;-142.07;100.00
62072;BME280;48031;48.542;13.232;2023-07-31T20:47:54;61634.44;;;-142.07;100.00
62072;BME280;48031;48.542;13.232;2023-07-31T20:51:56;61634.44;;;-142.07;100.00
62072;BME280;48031;48.542;13.232;2023-07-31T20:55:59;61634.44;;;-142.07;100.00